Time;durP1;ratioP1;P1;durP2;ratioP2;P2;SDS_P1;SDS_P2;PMS_P1;PMS_P2;Temp;Humidity;BMP_temperature;BMP_pressure;BME280_temperature;BME280_humidity;BME280_pressure;Samples;Min_cycle;Max_cycle;Signal;HPM_P1;HPM_P2
2021/08/05 00:01:41;;;;;;;5.80;3.45;;;15.20;99.90;;;;;;5070919;28;20408;-81
2021/08/05 00:04:07;;;;;;;5.57;3.33;;;15.20;99.90;;;;;;5071935;28;20382;-78
2021/08/05 00:06:32;;;;;;;3.80;3.40;;;15.10;99.90;;;;;;5071637;28;20377;-80
2021/08/05 00:08:58;;;;;;;3.50;3.17;;;15.00;99.90;;;;;;5071686;28;20438;-78
2021/08/05 00:11:23;;;;;;;5.20;3.27;;;15.10;99.90;;;;;;5071729;28;20463;-78
2021/08/05 00:13:49;;;;;;;3.75;3.17;;;15.00;99.90;;;;;;5054083;28;20495;-80
2021/08/05 00:16:15;;;;;;;5.60;3.20;;;15.00;99.90;;;;;;5071973;28;20391;-77
2021/08/05 00:18:40;;;;;;;5.28;3.53;;;14.90;99.90;;;;;;5054278;28;20377;-80
2021/08/05 00:21:06;;;;;;;4.13;3.50;;;14.90;99.90;;;;;;5071935;28;20390;-81
2021/08/05 00:23:31;;;;;;;6.25;3.65;;;14.90;99.90;;;;;;5071651;28;20394;-82
2021/08/05 00:25:57;;;;;;;5.50;3.43;;;14.90;99.90;;;;;;5053968;28;20461;-78
2021/08/05 00:28:22;;;;;;;5.63;3.53;;;14.90;99.90;;;;;;5071371;28;20385;-80
2021/08/05 00:30:48;;;;;;;5.37;3.50;;;14.90;99.90;;;;;;5071447;28;20480;-80
2021/08/05 00:33:14;;;;;;;10.43;3.75;;;14.90;99.90;;;;;;5053698;28;20390;-77
2021/08/05 00:35:39;;;;;;;5.13;3.50;;;14.90;99.90;;;;;;5053434;28;20374;-78
2021/08/05 00:38:05;;;;;;;4.78;3.42;;;14.90;99.90;;;;;;5053426;28;20482;-80
2021/08/05 00:40:30;;;;;;;4.07;3.37;;;14.90;99.90;;;;;;5071209;28;20907;-80
2021/08/05 00:42:56;;;;;;;4.45;3.00;;;14.80;99.90;;;;;;5071318;28;20744;-79
2021/08/05 00:45:21;;;;;;;4.57;3.30;;;14.80;99.90;;;;;;5071198;28;20397;-80
2021/08/05 00:47:47;;;;;;;4.60;3.30;;;14.80;99.90;;;;;;5071318;28;20384;-81
2021/08/05 00:50:12;;;;;;;4.67;3.43;;;14.70;99.90;;;;;;5052791;28;20386;-79
2021/08/05 00:52:38;;;;;;;5.38;3.58;;;14.80;99.90;;;;;;5070872;28;20366;-82
2021/08/05 00:55:05;;;;;;;5.25;3.20;;;14.80;99.90;;;;;;5071314;28;20424;-81
2021/08/05 00:57:31;;;;;;;5.65;3.60;;;14.80;99.90;;;;;;5070824;28;20389;-79
2021/08/05 00:59:57;;;;;;;6.70;3.17;;;14.70;99.90;;;;;;5071079;28;20398;-81
2021/08/05 01:02:31;;;;;;;5.65;3.40;;;14.70;99.90;;;;;;5070959;28;20379;-80
2021/08/05 01:04:58;;;;;;;4.88;2.88;;;14.70;99.90;;;;;;5053210;28;20489;-79
2021/08/05 01:07:34;;;;;;;4.15;3.13;;;14.70;99.90;;;;;;5070953;28;20367;-81
2021/08/05 01:10:25;;;;;;;4.57;3.25;;;14.70;99.90;;;;;;5070685;28;20374;-79
2021/08/05 01:13:05;;;;;;;5.53;3.30;;;14.60;99.90;;;;;;5052408;28;20463;-80
2021/08/05 01:15:32;;;;;;;7.27;3.80;;;14.60;99.90;;;;;;5071138;28;20394;-78
2021/08/05 01:18:08;;;;;;;3.70;3.30;;;14.50;99.90;;;;;;5070614;28;20378;-78
2021/08/05 01:20:34;;;;;;;4.75;3.20;;;14.50;99.90;;;;;;5070912;28;20497;-81
2021/08/05 01:23:11;;;;;;;5.13;3.50;;;14.50;99.90;;;;;;5070676;28;20402;-80
2021/08/05 01:25:43;;;;;;;4.45;3.67;;;14.50;99.90;;;;;;5070441;28;20374;-78
2021/08/05 01:28:10;;;;;;;5.60;3.40;;;14.50;99.90;;;;;;5052576;28;20421;-80
2021/08/05 01:30:36;;;;;;;4.53;3.20;;;14.50;99.90;;;;;;5070556;28;20370;-80
2021/08/05 01:33:02;;;;;;;3.85;3.45;;;14.50;99.90;;;;;;5070788;28;20366;-81
2021/08/05 01:35:30;;;;;;;4.88;3.60;;;14.40;99.90;;;;;;5052114;28;20380;-79
2021/08/05 01:37:56;;;;;;;5.20;3.50;;;14.40;99.90;;;;;;5070702;28;20416;-79
2021/08/05 01:40:23;;;;;;;3.70;3.38;;;14.40;99.90;;;;;;5052182;28;20406;-80
2021/08/05 01:42:48;;;;;;;5.72;3.25;;;14.40;99.90;;;;;;5070350;28;20406;-80
2021/08/05 01:45:16;;;;;;;5.10;3.80;;;14.40;99.90;;;;;;5053247;28;20417;-80
2021/08/05 01:47:42;;;;;;;4.82;3.42;;;14.40;99.90;;;;;;5070322;28;20440;-80
2021/08/05 01:50:11;;;;;;;4.68;3.58;;;14.40;99.90;;;;;;5051761;28;20385;-78
2021/08/05 01:52:37;;;;;;;3.40;3.10;;;14.40;99.90;;;;;;5070164;28;20397;-79
2021/08/05 01:55:05;;;;;;;4.20;3.80;;;14.40;99.90;;;;;;5051837;28;20384;-80
2021/08/05 01:57:31;;;;;;;4.22;3.80;;;14.40;99.90;;;;;;5051904;28;20918;-79
2021/08/05 01:59:57;;;;;;;5.68;3.80;;;14.40;99.90;;;;;;5051795;28;20402;-79
2021/08/05 02:02:23;;;;;;;4.05;3.60;;;14.40;99.90;;;;;;5069816;28;20879;-79
2021/08/05 02:05:01;;;;;;;4.38;3.78;;;14.40;99.90;;;;;;5051832;28;20389;-80
2021/08/05 02:07:45;;;;;;;5.40;3.60;;;14.30;99.90;;;;;;5069378;28;20440;-80
2021/08/05 02:10:20;;;;;;;4.15;3.30;;;14.30;99.90;;;;;;5069501;28;20432;-80
2021/08/05 02:13:11;;;;;;;5.07;3.83;;;14.20;99.90;;;;;;5069686;28;20378;-81
2021/08/05 02:15:42;;;;;;;5.25;3.92;;;14.10;99.90;;;;;;5069472;28;20417;-81
2021/08/05 02:18:10;;;;;;;7.28;3.88;;;14.10;99.90;;;;;;5069822;28;20887;-80
2021/08/05 02:20:35;;;;;;;4.45;3.47;;;14.00;99.90;;;;;;5069042;28;20405;-80
2021/08/05 02:23:01;;;;;;;4.90;4.07;;;14.00;99.90;;;;;;5068905;28;20461;-81
2021/08/05 02:25:27;;;;;;;4.60;3.80;;;13.90;99.90;;;;;;5069192;28;20903;-80
2021/08/05 02:27:54;;;;;;;5.70;3.90;;;13.90;99.90;;;;;;5069478;28;20382;-79
2021/08/05 02:30:20;;;;;;;4.50;3.47;;;13.90;99.90;;;;;;5069540;28;20374;-78
2021/08/05 02:32:47;;;;;;;4.28;3.75;;;13.80;99.90;;;;;;5069679;28;20774;-81
2021/08/05 02:35:14;;;;;;;4.22;3.72;;;13.80;99.90;;;;;;5050828;28;20377;-81
2021/08/05 02:37:40;;;;;;;4.38;3.78;;;13.70;99.90;;;;;;5068824;28;20366;-79
2021/08/05 02:40:07;;;;;;;15.40;5.32;;;13.70;99.90;;;;;;5069320;28;20401;-79
2021/08/05 02:42:35;;;;;;;6.05;4.18;;;13.70;99.90;;;;;;5069248;28;20461;-81
2021/08/05 02:45:01;;;;;;;4.95;4.00;;;13.60;99.90;;;;;;5050663;28;20485;-81
2021/08/05 02:47:27;;;;;;;4.40;4.00;;;13.60;99.90;;;;;;5051077;28;20461;-78
2021/08/05 02:49:54;;;;;;;6.07;3.97;;;13.60;99.90;;;;;;5068936;28;20366;-79
2021/08/05 02:52:21;;;;;;;6.60;3.83;;;13.50;99.90;;;;;;5069010;28;20914;-79
2021/08/05 02:54:47;;;;;;;8.10;4.80;;;13.40;99.90;;;;;;5069574;28;20366;-79
2021/08/05 02:57:14;;;;;;;6.43;4.20;;;13.40;99.90;;;;;;5069037;28;20443;-78
2021/08/05 02:59:39;;;;;;;5.23;3.87;;;13.30;99.90;;;;;;5050349;28;20397;-77
2021/08/05 03:02:06;;;;;;;5.50;4.53;;;13.30;99.90;;;;;;5068939;28;20374;-80
2021/08/05 03:04:33;;;;;;;33.00;6.57;;;13.20;99.90;;;;;;5069137;28;20457;-79
2021/08/05 03:06:59;;;;;;;8.30;4.70;;;13.20;99.90;;;;;;5068765;28;20846;-80
2021/08/05 03:09:25;;;;;;;7.00;4.75;;;13.20;99.90;;;;;;5068812;28;20370;-79
2021/08/05 03:11:51;;;;;;;6.53;4.73;;;13.20;99.90;;;;;;5050754;28;20443;-79
2021/08/05 03:14:16;;;;;;;4.33;3.93;;;13.20;99.90;;;;;;5068749;28;20409;-79
2021/08/05 03:16:42;;;;;;;5.72;4.32;;;13.20;99.90;;;;;;5050664;28;20441;-81
2021/08/05 03:19:08;;;;;;;5.57;3.95;;;13.20;99.90;;;;;;5068885;28;20388;-80
2021/08/05 03:21:33;;;;;;;5.13;4.37;;;13.20;99.90;;;;;;5068753;28;20406;-81
2021/08/05 03:23:59;;;;;;;4.72;4.32;;;13.20;99.90;;;;;;5068950;28;20724;-78
2021/08/05 03:26:24;;;;;;;5.60;4.30;;;13.30;99.90;;;;;;5068504;28;20378;-80
2021/08/05 03:28:50;;;;;;;5.55;4.22;;;13.30;99.90;;;;;;5068791;28;21337;-79
2021/08/05 03:31:15;;;;;;;7.40;4.90;;;13.40;99.90;;;;;;5068922;28;20406;-82
2021/08/05 03:33:41;;;;;;;7.53;4.07;;;13.30;99.90;;;;;;5068579;28;20408;-79
2021/08/05 03:36:06;;;;;;;5.60;4.20;;;13.40;99.90;;;;;;5071979;28;20457;-81
2021/08/05 03:38:32;;;;;;;12.87;4.60;;;13.30;99.90;;;;;;5072563;28;20429;-80
2021/08/05 03:40:58;;;;;;;5.30;4.43;;;13.40;99.90;;;;;;5072678;28;21046;-79
2021/08/05 03:43:23;;;;;;;5.33;4.60;;;13.40;99.90;;;;;;5072531;28;20385;-78
2021/08/05 03:45:49;;;;;;;6.18;4.55;;;13.40;99.90;;;;;;5072540;28;20864;-77
2021/08/05 03:48:15;;;;;;;4.67;4.23;;;13.40;99.90;;;;;;5071681;28;20727;-82
2021/08/05 03:50:40;;;;;;;4.75;4.15;;;13.30;99.90;;;;;;5072036;28;20630;-78
2021/08/05 03:53:06;;;;;;;5.13;4.10;;;13.40;99.90;;;;;;5072234;28;20409;-82
2021/08/05 03:55:31;;;;;;;6.00;4.10;;;13.50;99.90;;;;;;5071997;28;20728;-81
2021/08/05 03:57:57;;;;;;;7.00;4.03;;;13.60;99.90;;;;;;5072184;28;20882;-77
2021/08/05 04:00:23;;;;;;;5.73;3.90;;;13.50;99.90;;;;;;5071982;28;20402;-77
2021/08/05 04:02:49;;;;;;;5.45;4.38;;;13.50;99.90;;;;;;5071795;28;20746;-77
2021/08/05 04:05:14;;;;;;;4.78;4.15;;;13.50;99.90;;;;;;5071939;28;20428;-79
2021/08/05 04:07:40;;;;;;;6.53;4.07;;;13.50;99.90;;;;;;5072233;28;20374;-77
2021/08/05 04:10:06;;;;;;;6.23;3.90;;;13.50;99.90;;;;;;5071836;28;20736;-79
2021/08/05 04:12:32;;;;;;;6.40;3.97;;;13.60;99.90;;;;;;5071525;28;20370;-78
2021/08/05 04:14:57;;;;;;;4.60;3.93;;;13.70;99.90;;;;;;5071776;28;20370;-79
2021/08/05 04:17:23;;;;;;;5.65;3.90;;;13.70;99.90;;;;;;5071614;28;20385;-80
2021/08/05 04:19:49;;;;;;;5.17;4.07;;;13.80;99.90;;;;;;5071603;28;20373;-81
2021/08/05 04:22:14;;;;;;;5.03;3.97;;;13.80;99.90;;;;;;5071579;28;20402;-80
2021/08/05 04:24:40;;;;;;;5.30;3.93;;;13.90;99.90;;;;;;5071656;28;20465;-79
2021/08/05 04:27:05;;;;;;;6.97;4.10;;;13.90;99.90;;;;;;5071507;28;20377;-78
2021/08/05 04:29:32;;;;;;;4.70;3.93;;;13.90;99.90;;;;;;5071700;28;20378;-79
2021/08/05 04:31:57;;;;;;;5.60;3.75;;;13.90;99.90;;;;;;5072552;28;20451;-81
2021/08/05 04:34:23;;;;;;;5.57;4.03;;;14.00;99.90;;;;;;5071446;28;20762;-77
2021/08/05 04:36:49;;;;;;;4.00;3.60;;;14.10;99.90;;;;;;5071887;28;20412;-77
2021/08/05 04:39:14;;;;;;;5.05;3.45;;;14.20;99.90;;;;;;5071371;28;20366;-80
2021/08/05 04:41:40;;;;;;;8.37;3.87;;;14.40;99.90;;;;;;5072066;28;20414;-81
2021/08/05 04:44:06;;;;;;;5.45;3.47;;;14.50;99.90;;;;;;5071292;28;20428;-80
2021/08/05 04:46:31;;;;;;;4.88;3.70;;;14.60;99.90;;;;;;5070852;28;20366;-79
2021/08/05 04:48:57;;;;;;;4.60;3.70;;;14.80;99.90;;;;;;5071983;28;20790;-77
2021/08/05 04:51:22;;;;;;;4.40;3.50;;;15.10;99.90;;;;;;5071314;28;20778;-81
2021/08/05 04:53:48;;;;;;;7.17;3.77;;;15.20;99.90;;;;;;5071805;28;20370;-79
2021/08/05 04:56:13;;;;;;;7.63;3.80;;;15.50;99.90;;;;;;5053461;28;20428;-81
2021/08/05 04:58:39;;;;;;;6.17;3.60;;;15.70;99.90;;;;;;5071112;28;20425;-79
2021/08/05 05:01:05;;;;;;;5.10;3.47;;;15.80;99.90;;;;;;5071911;28;20402;-77
2021/08/05 05:03:30;;;;;;;11.60;4.23;;;15.90;99.90;;;;;;5072179;28;20382;-82
2021/08/05 05:05:57;;;;;;;6.55;3.50;;;16.10;99.90;;;;;;5070913;28;20390;-80
2021/08/05 05:08:24;;;;;;;6.65;3.58;;;16.30;99.90;;;;;;5072416;28;20374;-81
2021/08/05 05:10:52;;;;;;;6.87;3.57;;;16.40;99.90;;;;;;5072123;28;20378;-81
2021/08/05 05:13:19;;;;;;;5.10;3.30;;;16.60;99.90;;;;;;5071793;28;20735;-81
2021/08/05 05:15:45;;;;;;;5.07;3.30;;;17.00;99.90;;;;;;5072632;28;20381;-81
2021/08/05 05:18:12;;;;;;;5.93;3.55;;;17.20;99.90;;;;;;5070820;28;20401;-79
2021/08/05 05:20:38;;;;;;;7.03;3.55;;;17.40;99.90;;;;;;5071191;28;20417;-80
2021/08/05 05:23:05;;;;;;;4.25;3.50;;;17.60;99.90;;;;;;5071698;28;20367;-80
2021/08/05 05:25:31;;;;;;;4.45;3.38;;;17.60;99.90;;;;;;5071452;28;20382;-78
2021/08/05 05:27:57;;;;;;;4.87;3.50;;;17.60;99.90;;;;;;5071085;28;20871;-79
2021/08/05 05:30:23;;;;;;;5.32;3.47;;;17.70;99.90;;;;;;5070739;28;20491;-79
2021/08/05 05:32:49;;;;;;;5.35;3.20;;;17.70;99.90;;;;;;5071680;28;20427;-81
2021/08/05 05:35:17;;;;;;;4.30;3.10;;;17.70;99.90;;;;;;5070892;28;20835;-80
2021/08/05 05:37:44;;;;;;;10.13;3.95;;;17.70;99.90;;;;;;5070275;28;20456;-79
2021/08/05 05:40:10;;;;;;;6.07;3.30;;;17.60;99.90;;;;;;5052154;28;20419;-81
2021/08/05 05:42:36;;;;;;;20.13;4.60;;;17.50;99.90;;;;;;5070160;28;20799;-81
2021/08/05 05:45:03;;;;;;;12.63;3.70;;;17.60;99.90;;;;;;5052427;28;20374;-78
2021/08/05 05:47:29;;;;;;;13.30;3.55;;;17.80;99.90;;;;;;5070120;28;20902;-80
2021/08/05 05:49:54;;;;;;;5.73;3.30;;;18.00;99.90;;;;;;5069584;28;20366;-79
2021/08/05 05:52:21;;;;;;;5.00;3.20;;;18.00;99.90;;;;;;5070390;28;20597;-78
2021/08/05 05:54:47;;;;;;;4.70;3.20;;;18.10;99.90;;;;;;5070487;28;20374;-81
2021/08/05 05:57:12;;;;;;;5.25;3.42;;;18.10;99.90;;;;;;5070209;28;20395;-80
2021/08/05 05:59:40;;;;;;;12.40;4.37;;;18.00;99.90;;;;;;5052292;28;20398;-80
2021/08/05 06:02:06;;;;;;;6.28;3.40;;;18.00;99.90;;;;;;5069785;28;20501;-80
2021/08/05 06:04:32;;;;;;;5.82;3.53;;;18.00;99.90;;;;;;5069984;28;20514;-77
2021/08/05 06:06:57;;;;;;;4.80;3.40;;;18.00;99.90;;;;;;5070606;28;20408;-80
2021/08/05 06:09:23;;;;;;;4.25;3.20;;;18.10;99.90;;;;;;5068516;28;20378;-80
2021/08/05 06:11:49;;;;;;;8.77;3.90;;;18.20;99.90;;;;;;5070092;28;20465;-82
2021/08/05 06:14:15;;;;;;;5.13;3.35;;;18.30;99.90;;;;;;5069884;28;20385;-78
2021/08/05 06:16:41;;;;;;;6.10;3.42;;;18.30;99.90;;;;;;5051642;28;20382;-81
2021/08/05 06:19:07;;;;;;;10.23;3.60;;;18.20;99.90;;;;;;5069818;28;20505;-80
2021/08/05 06:21:33;;;;;;;4.78;3.42;;;18.20;99.90;;;;;;5070825;28;20471;-78
2021/08/05 06:23:58;;;;;;;5.60;3.70;;;18.30;99.90;;;;;;5053534;28;20872;-80
2021/08/05 06:26:24;;;;;;;10.90;4.00;;;18.40;99.90;;;;;;5071717;28;20386;-82
2021/08/05 06:28:51;;;;;;;8.52;4.07;;;18.40;99.90;;;;;;5061781;28;20365;-80
2021/08/05 06:31:18;;;;;;;9.30;3.97;;;18.50;99.90;;;;;;5077341;28;20375;-79
2021/08/05 06:33:45;;;;;;;6.05;3.78;;;18.80;99.90;;;;;;5062825;28;20381;-82
2021/08/05 06:36:11;;;;;;;4.67;3.90;;;19.00;99.90;;;;;;5079819;28;20374;-79
2021/08/05 06:38:37;;;;;;;4.43;3.40;;;19.20;99.90;;;;;;5081040;28;20381;-78
2021/08/05 06:41:03;;;;;;;4.80;3.33;;;19.60;99.90;;;;;;5077867;28;20406;-82
2021/08/05 06:43:29;;;;;;;6.33;3.70;;;19.80;99.90;;;;;;5079148;28;20392;-79
2021/08/05 06:45:55;;;;;;;6.60;3.47;;;20.20;99.90;;;;;;5079686;28;20372;-79
2021/08/05 06:48:20;;;;;;;5.20;3.60;;;20.50;99.90;;;;;;5077440;28;20386;-79
2021/08/05 06:50:46;;;;;;;5.63;3.22;;;20.60;99.90;;;;;;5079835;28;20467;-80
2021/08/05 06:53:12;;;;;;;7.38;3.53;;;20.60;99.90;;;;;;5078674;28;20379;-81
2021/08/05 06:55:37;;;;;;;6.60;3.53;;;20.70;99.90;;;;;;5077457;28;20384;-81
2021/08/05 06:58:03;;;;;;;4.80;3.00;;;21.00;99.90;;;;;;5074724;28;20385;-83
2021/08/05 07:00:29;;;;;;;5.43;3.10;;;21.20;99.90;;;;;;5076494;28;20411;-83
2021/08/05 07:02:54;;;;;;;3.90;3.00;;;21.60;99.90;;;;;;5079155;28;20875;-81
2021/08/05 07:05:20;;;;;;;5.47;3.70;;;21.70;99.90;;;;;;5077520;28;20384;-82
2021/08/05 07:07:45;;;;;;;5.37;3.90;;;21.60;99.90;;;;;;5079260;28;20380;-77
2021/08/05 07:10:11;;;;;;;6.47;3.73;;;21.80;99.90;;;;;;5068872;28;20378;-81
2021/08/05 07:12:37;;;;;;;7.70;4.03;;;21.80;99.90;;;;;;5086850;28;20380;-79
2021/08/05 07:15:03;;;;;;;5.05;3.65;;;21.90;99.90;;;;;;5088897;28;20376;-80
2021/08/05 07:17:29;;;;;;;19.15;4.70;;;21.90;99.90;;;;;;5088773;28;20475;-77
2021/08/05 07:19:54;;;;;;;6.27;3.90;;;22.00;99.90;;;;;;5079646;28;20816;-79
2021/08/05 07:22:20;;;;;;;5.37;3.80;;;22.30;99.90;;;;;;5073248;28;20397;-79
2021/08/05 07:24:46;;;;;;;4.43;3.55;;;22.30;99.90;;;;;;5069296;28;20373;-80
2021/08/05 07:27:12;;;;;;;7.03;3.58;;;22.00;99.90;;;;;;5086269;28;20450;-82
2021/08/05 07:29:37;;;;;;;5.77;3.67;;;21.60;99.90;;;;;;5072418;28;20868;-81
2021/08/05 07:32:04;;;;;;;6.25;3.72;;;21.60;99.90;;;;;;5069706;28;20374;-79
2021/08/05 07:34:31;;;;;;;8.27;4.10;;;21.70;99.90;;;;;;5051938;28;20390;-79
2021/08/05 07:36:57;;;;;;;7.60;4.68;;;21.90;99.90;;;;;;5076365;28;20420;-79
2021/08/05 07:39:23;;;;;;;6.82;3.90;;;22.20;99.90;;;;;;5080116;28;20411;-79
2021/08/05 07:41:49;;;;;;;9.33;4.53;;;22.60;99.90;;;;;;5079090;28;20401;-78
2021/08/05 07:44:14;;;;;;;5.43;4.03;;;22.60;99.90;;;;;;5080648;28;20368;-83
2021/08/05 07:46:40;;;;;;;7.50;4.73;;;22.70;99.90;;;;;;5080644;28;20478;-80
2021/08/05 07:49:06;;;;;;;7.35;4.30;;;22.70;99.90;;;;;;5086064;28;20866;-79
2021/08/05 07:51:32;;;;;;;6.63;5.00;;;22.70;99.90;;;;;;5090003;28;20379;-79
2021/08/05 07:53:57;;;;;;;7.93;4.82;;;22.70;99.90;;;;;;5071261;28;20380;-80
2021/08/05 07:56:23;;;;;;;20.40;6.40;;;22.60;99.90;;;;;;5089723;28;20380;-81
2021/08/05 07:58:49;;;;;;;7.32;4.88;;;22.50;99.90;;;;;;5088334;28;20389;-79
2021/08/05 08:01:15;;;;;;;14.30;5.80;;;22.50;99.90;;;;;;5089262;28;20395;-80
2021/08/05 08:03:41;;;;;;;5.87;4.80;;;22.60;99.90;;;;;;5090175;28;20377;-80
2021/08/05 08:06:06;;;;;;;8.23;5.20;;;22.60;99.90;;;;;;5090276;28;20391;-80
2021/08/05 08:08:32;;;;;;;6.10;5.27;;;22.70;99.90;;;;;;5090427;28;20375;-82
2021/08/05 08:10:58;;;;;;;8.00;5.25;;;23.00;99.90;;;;;;5071490;28;20384;-80
2021/08/05 08:13:24;;;;;;;8.13;4.93;;;23.10;99.90;;;;;;5089597;28;20452;-77
2021/08/05 08:15:50;;;;;;;7.28;5.32;;;23.00;99.90;;;;;;5090275;28;20396;-78
2021/08/05 08:18:16;;;;;;;8.63;5.03;;;22.80;99.90;;;;;;5088861;28;20373;-81
2021/08/05 08:20:42;;;;;;;8.02;5.03;;;22.80;99.90;;;;;;5089164;28;20400;-82
2021/08/05 08:23:07;;;;;;;6.88;4.93;;;22.90;99.90;;;;;;5092967;28;20503;-80
2021/08/05 08:25:33;;;;;;;12.17;4.43;;;23.00;99.90;;;;;;5093862;28;20420;-81
2021/08/05 08:27:59;;;;;;;15.02;5.10;;;23.50;99.90;;;;;;5092505;28;20380;-78
2021/08/05 08:30:25;;;;;;;41.07;8.07;;;23.90;99.90;;;;;;5093573;28;20427;-82
2021/08/05 08:32:51;;;;;;;11.80;4.93;;;24.10;99.90;;;;;;5092452;28;20376;-81
2021/08/05 08:35:17;;;;;;;6.15;4.93;;;24.00;99.90;;;;;;5093328;28;20391;-80
2021/08/05 08:37:43;;;;;;;6.82;4.88;;;23.90;99.90;;;;;;5093050;28;20373;-81
2021/08/05 08:40:10;;;;;;;10.77;5.37;;;23.90;99.90;;;;;;5092942;28;20866;-79
2021/08/05 08:42:37;;;;;;;5.55;4.50;;;24.10;99.90;;;;;;5093381;28;20372;-77
2021/08/05 08:45:04;;;;;;;8.13;4.50;;;24.20;99.90;;;;;;5074595;28;20375;-80
2021/08/05 08:47:31;;;;;;;7.03;4.20;;;24.40;99.90;;;;;;5093094;28;20380;-79
2021/08/05 08:49:58;;;;;;;30.23;7.18;;;24.50;99.90;;;;;;5074286;28;20820;-79
2021/08/05 08:52:26;;;;;;;7.15;4.78;;;24.40;99.90;;;;;;5083209;28;20386;-80
2021/08/05 08:54:54;;;;;;;7.72;4.80;;;24.10;99.90;;;;;;5073098;28;20399;-79
2021/08/05 08:57:21;;;;;;;7.97;5.30;;;24.30;99.90;;;;;;5072070;28;20374;-80
2021/08/05 08:59:47;;;;;;;9.05;5.75;;;24.10;99.90;;;;;;5072775;28;20457;-79
2021/08/05 09:02:14;;;;;;;15.27;7.30;;;24.10;99.90;;;;;;5072575;28;20405;-78
2021/08/05 09:04:40;;;;;;;5.95;5.18;;;24.10;99.90;;;;;;5072127;28;20397;-79
2021/08/05 09:07:06;;;;;;;7.40;5.50;;;24.00;99.90;;;;;;5053871;28;20531;-79
2021/08/05 09:09:32;;;;;;;6.88;4.97;;;24.00;99.90;;;;;;5073448;28;20386;-80
2021/08/05 09:11:58;;;;;;;6.30;4.85;;;24.10;99.90;;;;;;5072341;28;20454;-78
2021/08/05 09:14:45;;;;;;;7.07;4.95;;;24.30;99.90;;;;;;5071759;28;20397;-78
2021/08/05 09:17:21;;;;;;;8.55;5.43;;;24.20;99.90;;;;;;5072709;28;20429;-77
2021/08/05 09:19:47;;;;;;;6.47;5.13;;;24.30;99.90;;;;;;5072826;28;20377;-81
2021/08/05 09:22:33;;;;;;;5.07;4.50;;;24.40;99.90;;;;;;5072399;28;21109;-81
2021/08/05 09:25:18;;;;;;;8.25;4.75;;;24.50;99.90;;;;;;5071934;28;20377;-82
2021/08/05 09:27:44;;;;;;;5.03;4.07;;;24.40;99.90;;;;;;5054028;28;20414;-80
2021/08/05 09:30:10;;;;;;;62.50;10.43;;;24.40;99.90;;;;;;5071445;28;20428;-82
2021/08/05 09:32:35;;;;;;;10.77;4.60;;;24.30;99.90;;;;;;5071643;28;20370;-80
2021/08/05 09:35:09;;;;;;;7.57;4.23;;;24.30;99.90;;;;;;5053170;28;20371;-80
2021/08/05 09:37:39;;;;;;;7.10;4.17;;;24.10;99.90;;;;;;5072360;28;20794;-78
2021/08/05 09:40:13;;;;;;;7.85;4.30;;;24.10;99.90;;;;;;5054040;28;20405;-80
2021/08/05 09:42:39;;;;;;;7.80;4.00;;;24.20;99.90;;;;;;5071709;28;20417;-77
2021/08/05 09:45:07;;;;;;;8.63;3.90;;;24.40;99.90;;;;;;5071443;28;20402;-80
2021/08/05 09:47:42;;;;;;;7.15;4.18;;;24.30;99.90;;;;;;5054409;28;20386;-78
2021/08/05 09:50:08;;;;;;;4.35;3.10;;;24.40;99.90;;;;;;5079683;28;20376;-80
2021/08/05 09:52:35;;;;;;;6.55;3.38;;;24.40;99.90;;;;;;5064440;28;20422;-78
2021/08/05 09:55:05;;;;;;;7.85;4.10;;;24.40;99.90;;;;;;5081655;28;21178;-78
2021/08/05 09:57:36;;;;;;;5.60;3.97;;;24.30;99.90;;;;;;5081210;28;20376;-81
2021/08/05 10:00:10;;;;;;;5.45;3.80;;;24.30;99.90;;;;;;5080439;28;20884;-79
2021/08/05 10:02:52;;;;;;;7.83;3.77;;;24.30;99.90;;;;;;5080063;28;20773;-80
2021/08/05 10:05:21;;;;;;;29.17;5.70;;;24.50;99.90;;;;;;5080016;28;20894;-76
2021/08/05 10:07:51;;;;;;;5.05;3.72;;;24.60;99.90;;;;;;5079803;28;20372;-78
2021/08/05 10:10:19;;;;;;;5.73;3.57;;;24.70;99.90;;;;;;5079095;28;20779;-79
2021/08/05 10:12:59;;;;;;;5.55;3.83;;;24.70;99.90;;;;;;5080154;28;20380;-78
2021/08/05 10:15:26;;;;;;;7.28;3.80;;;24.80;99.90;;;;;;5079545;28;20372;-82
2021/08/05 10:17:57;;;;;;;5.05;3.55;;;24.90;99.90;;;;;;5076443;28;20394;-78
2021/08/05 10:20:24;;;;;;;17.75;4.65;;;24.90;99.90;;;;;;5079337;28;20450;-80
2021/08/05 10:22:51;;;;;;;3.85;3.22;;;25.20;99.90;;;;;;5060390;28;20377;-80
2021/08/05 10:25:21;;;;;;;5.80;3.60;;;25.50;99.90;;;;;;5058327;28;20818;-82
2021/08/05 10:27:48;;;;;;;5.97;3.75;;;25.50;99.90;;;;;;5079365;28;20382;-79
2021/08/05 10:30:16;;;;;;;7.20;3.58;;;25.70;99.90;;;;;;5077917;28;20894;-80
2021/08/05 10:32:42;;;;;;;20.23;5.07;;;25.60;99.90;;;;;;5080190;28;20380;-79
2021/08/05 10:35:10;;;;;;;6.68;3.70;;;25.60;99.90;;;;;;5084463;28;20701;-79
2021/08/05 10:37:36;;;;;;;7.53;3.35;;;25.50;99.90;;;;;;5078371;28;20381;-79
2021/08/05 10:40:06;;;;;;;4.90;3.22;;;25.50;99.90;;;;;;5080861;28;21370;-81
2021/08/05 10:42:33;;;;;;;4.38;3.25;;;25.60;99.90;;;;;;5066827;28;20388;-77
2021/08/05 10:44:59;;;;;;;11.03;3.93;;;25.80;99.90;;;;;;5082261;28;20380;-80
2021/08/05 10:47:27;;;;;;;7.63;2.97;;;25.60;99.90;;;;;;5077965;28;20386;-82
2021/08/05 10:50:00;;;;;;;5.78;2.90;;;25.60;99.90;;;;;;5080788;28;20439;-80
2021/08/05 10:52:39;;;;;;;4.60;3.03;;;25.80;99.90;;;;;;5075848;28;20877;-78
2021/08/05 10:55:15;;;;;;;6.05;3.17;;;26.00;99.90;;;;;;5078515;28;20429;-79
2021/08/05 10:57:41;;;;;;;4.18;2.97;;;26.30;99.90;;;;;;5060306;28;20554;-81
2021/08/05 11:00:16;;;;;;;7.22;3.38;;;26.30;99.80;;;;;;5083314;28;20407;-81
2021/08/05 11:02:55;;;;;;;5.18;3.10;;;26.40;99.50;;;;;;5080268;28;20870;-81
2021/08/05 11:05:26;;;;;;;3.80;2.65;;;26.60;98.90;;;;;;5078053;28;20374;-80
2021/08/05 11:08:15;;;;;;;5.67;2.77;;;26.40;98.70;;;;;;5080342;28;20473;-77
2021/08/05 11:10:41;;;;;;;4.00;2.90;;;26.40;99.90;;;;;;5068209;28;20402;-80
2021/08/05 11:13:07;;;;;;;7.80;2.88;;;;;;;;;;5076392;28;20440;-81
2021/08/05 11:15:33;;;;;;;32.20;5.40;;;;;;;;;;5079487;28;20376;-80
2021/08/05 11:20:43;;;;;;;3.92;2.80;;;;;;;;;;5078216;28;20410;-80
2021/08/05 11:23:24;;;;;;;11.80;3.13;;;;;;;;;;5062449;28;20879;-83
2021/08/05 11:25:51;;;;;;;21.57;4.10;;;;;;;;;;5077621;28;20378;-79
2021/08/05 11:28:27;;;;;;;5.25;2.83;;;;;;;;;;5079594;28;20464;-80
2021/08/05 11:30:53;;;;;;;6.70;3.17;;;;;;;;;;5081307;28;20369;-83
2021/08/05 11:33:37;;;;;;;5.38;2.92;;;;;;;;;;5077167;28;20394;-82
2021/08/05 11:36:09;;;;;;;5.30;2.92;;;;;;;;;;5073707;28;21140;-80
2021/08/05 11:38:35;;;;;;;4.47;2.63;;;;;;;;;;5078328;28;20935;-78
2021/08/05 11:41:01;;;;;;;4.70;2.97;;;;;;;;;;5074702;28;20440;-80
2021/08/05 11:43:30;;;;;;;6.07;2.92;;;;;;;;;;5059844;28;20387;-79
2021/08/05 11:46:16;;;;;;;5.70;3.03;;;;;;;;;;5059133;28;20375;-80
2021/08/05 11:48:43;;;;;;;17.73;3.80;;;;;;;;;;5045091;28;20397;-79
2021/08/05 11:51:09;;;;;;;4.07;2.90;;;;;;;;;;5074185;28;20374;-81
2021/08/05 11:53:35;;;;;;;3.40;2.80;;;;;;;;;;5076171;28;20395;-79
2021/08/05 11:56:09;;;;;;;4.28;2.65;;;;;;;;;;5059291;28;20802;-79
2021/08/05 11:58:42;;;;;;;9.63;3.45;;;;;;;;;;5079995;28;20396;-79
2021/08/05 12:01:17;;;;;;;4.38;2.40;;;;;;;;;;5075368;28;20939;-82
2021/08/05 12:03:44;;;;;;;3.10;2.80;;;;;;;;;;5078811;28;20380;-79
2021/08/05 12:06:22;;;;;;;5.72;2.85;;;;;;;;;;5062177;28;20384;-81
2021/08/05 12:08:49;;;;;;;3.67;2.72;;;;;;;;;;5079123;28;20372;-81
2021/08/05 12:11:15;;;;;;;3.40;2.47;;;;;;;;;;5086510;28;20379;-81
2021/08/05 12:13:41;;;;;;;13.25;3.40;;;;;;;;;;5065582;28;20391;-79
2021/08/05 12:16:07;;;;;;;4.47;2.55;;;;;;;;;;5091353;28;20368;-77
2021/08/05 12:18:39;;;;;;;3.60;2.40;;;;;;;;;;5092990;28;20379;-78
2021/08/05 12:21:06;;;;;;;2.63;2.42;;;;;;;;;;5091607;28;20396;-79
2021/08/05 12:23:36;;;;;;;5.03;2.60;;;;;;;;;;5074386;28;20377;-77
2021/08/05 12:26:06;;;;;;;4.20;2.37;;;;;;;;;;5085101;28;20415;-79
2021/08/05 12:28:37;;;;;;;8.80;2.85;;;;;;;;;;5090510;28;20380;-81
2021/08/05 12:31:07;;;;;;;9.50;2.92;;;;;;;;;;5073204;28;20459;-78
2021/08/05 12:33:43;;;;;;;2.95;2.55;;;;;;;;;;5088591;28;20798;-80
2021/08/05 12:36:10;;;;;;;18.30;3.38;;;;;;;;;;5086301;28;20363;-82
2021/08/05 12:38:53;;;;;;;7.43;2.50;;;;;;;;;;5086828;28;20383;-80
2021/08/05 12:41:37;;;;;;;6.00;2.25;;;;;;;;;;5079737;28;20444;-79
2021/08/05 12:44:23;;;;;;;4.53;2.30;;;;;;;;;;5079942;28;20357;-80
2021/08/05 12:46:51;;;;;;;6.47;2.45;;;;;;;;;;5079596;28;20523;-80
2021/08/05 12:49:17;;;;;;;4.18;2.08;;;;;;;;;;5079435;28;20366;-81
2021/08/05 12:51:44;;;;;;;4.07;2.53;;;;;;;;;;5082265;28;20384;-78
2021/08/05 12:54:17;;;;;;;4.90;2.60;;;;;;;;;;5075585;28;21439;-80
2021/08/05 12:56:44;;;;;;;4.13;2.47;;;;;;;;;;5076454;28;20370;-78
2021/08/05 12:59:11;;;;;;;4.10;2.45;;;;;;;;;;5060562;28;20843;-81
2021/08/05 13:01:37;;;;;;;7.90;2.85;;;;;;;;;;5079721;28;20944;-79
2021/08/05 13:04:03;;;;;;;3.85;2.50;;;;;;;;;;5080735;28;20870;-80
2021/08/05 13:06:50;;;;;;;7.75;2.60;;;;;;;;;;5081901;28;20508;-79